Time;durP1;ratioP1;P1;durP2;ratioP2;P2;SDS_P1;SDS_P2;PMS_P1;PMS_P2;Temp;Humidity;BMP_temperature;BMP_pressure;BME280_temperature;BME280_humidity;BME280_pressure;Samples;Min_cycle;Max_cycle;Signal;HPM_P1;HPM_P2
2020/12/26 00:02:17;;;;;;;5.50;5.00;;;;;;;-1.80;100.00;98683.25;5006153;28;20448;-74
2020/12/26 00:04:44;;;;;;;5.27;4.87;;;;;;;-1.62;99.90;98686.78;5001778;28;20491;-73
2020/12/26 00:07:12;;;;;;;5.07;4.43;;;;;;;-1.61;99.57;98688.47;4997765;28;20472;-73
2020/12/26 00:09:39;;;;;;;4.63;4.23;;;;;;;-1.61;100.00;98693.66;5009265;28;20810;-74
2020/12/26 00:12:07;;;;;;;3.83;3.63;;;;;;;-1.60;100.00;98689.31;5007324;28;20439;-74
2020/12/26 00:14:35;;;;;;;4.63;4.33;;;;;;;-1.69;99.83;98690.59;5002806;28;20460;-72
2020/12/26 00:17:03;;;;;;;4.93;4.50;;;;;;;-1.75;100.00;98691.69;5004048;28;20911;-73
2020/12/26 00:19:30;;;;;;;4.57;4.27;;;;;;;-1.75;100.00;98683.88;5013400;28;20573;-73
2020/12/26 00:21:57;;;;;;;5.37;4.97;;;;;;;-1.68;100.00;98691.44;5003299;28;20462;-72
2020/12/26 00:24:24;;;;;;;4.90;4.50;;;;;;;-1.79;100.00;98692.75;5004804;28;20464;-74
2020/12/26 00:26:51;;;;;;;4.40;4.10;;;;;;;-1.58;100.00;98687.50;5007887;28;20586;-74
2020/12/26 00:29:18;;;;;;;5.07;4.77;;;;;;;-1.69;100.00;98681.97;5006933;28;20590;-73
2020/12/26 00:31:47;;;;;;;3.57;3.37;;;;;;;-1.80;99.85;98683.25;5005908;28;20492;-73
2020/12/26 00:34:14;;;;;;;4.57;3.73;;;;;;;-1.79;98.59;98679.75;5011925;28;20457;-74
2020/12/26 00:36:41;;;;;;;3.87;3.53;;;;;;;-1.85;98.92;98677.44;5002612;28;20205;-73
2020/12/26 00:39:08;;;;;;;4.47;4.17;;;;;;;-1.70;99.58;98675.06;5006727;28;20503;-74
2020/12/26 00:41:37;;;;;;;4.07;3.87;;;;;;;-1.73;99.42;98672.59;5002697;28;20209;-74
2020/12/26 00:44:04;;;;;;;4.00;3.80;;;;;;;-1.76;98.96;98674.41;5010658;28;20209;-74
2020/12/26 00:46:32;;;;;;;6.47;4.33;;;;;;;-1.72;97.29;98663.88;5005951;28;21126;-73
2020/12/26 00:48:59;;;;;;;4.00;3.80;;;;;;;-1.68;97.16;98668.03;5013070;28;20455;-73
2020/12/26 00:51:26;;;;;;;4.07;3.80;;;;;;;-1.68;98.53;98671.47;5005565;28;20443;-74
2020/12/26 00:53:53;;;;;;;4.70;4.30;;;;;;;-1.72;99.56;98674.28;5012064;28;20443;-73
2020/12/26 00:56:20;;;;;;;3.70;3.50;;;;;;;-1.74;99.90;98671.75;5001528;28;20281;-73
2020/12/26 00:58:47;;;;;;;4.30;3.90;;;;;;;-1.69;99.42;98674.16;5008560;28;20241;-74
2020/12/26 01:01:15;;;;;;;4.10;3.70;;;;;;;-1.68;99.49;98671.47;5012475;28;20790;-73
2020/12/26 01:03:43;;;;;;;4.37;4.00;;;;;;;-1.68;99.32;98675.84;5003727;28;20453;-73
2020/12/26 01:06:14;;;;;;;4.10;3.80;;;;;;;-1.55;98.52;98670.91;5001262;28;20483;-72
2020/12/26 01:08:41;;;;;;;13.73;5.73;;;;;;;-1.65;99.17;98683.50;5013451;28;20477;-73
2020/12/26 01:11:09;;;;;;;4.43;4.23;;;;;;;-1.71;99.05;98683.75;5019526;28;20429;-74
2020/12/26 01:13:36;;;;;;;4.20;3.90;;;;;;;-1.78;99.38;98686.63;5004790;28;20482;-75
2020/12/26 01:16:04;;;;;;;4.60;4.30;;;;;;;-1.74;99.58;98684.75;5021036;28;20449;-74
2020/12/26 01:18:31;;;;;;;4.27;3.97;;;;;;;-1.73;100.00;98675.19;5004196;28;20467;-74
2020/12/26 01:21:00;;;;;;;4.83;4.53;;;;;;;-1.72;98.43;98685.53;5001615;28;20453;-72
2020/12/26 01:23:27;;;;;;;4.30;3.90;;;;;;;-1.76;99.45;98678.78;5004984;28;20460;-74
2020/12/26 01:25:54;;;;;;;5.17;4.67;;;;;;;-1.80;100.00;98685.84;5011348;28;20487;-74
2020/12/26 01:28:21;;;;;;;4.60;4.20;;;;;;;-1.79;100.00;98684.13;5000696;28;20236;-72
2020/12/26 01:30:49;;;;;;;4.50;4.10;;;;;;;-1.82;100.00;98686.84;5006868;28;20486;-73
2020/12/26 01:33:16;;;;;;;3.97;3.70;;;;;;;-1.75;100.00;98691.69;5004624;28;20448;-74
2020/12/26 01:35:43;;;;;;;4.77;4.47;;;;;;;-1.70;100.00;98685.47;5004097;28;20448;-73
2020/12/26 01:38:11;;;;;;;4.10;3.80;;;;;;;-1.69;100.00;98685.38;5005568;28;20542;-73
2020/12/26 01:40:38;;;;;;;3.87;3.67;;;;;;;-1.70;99.30;98696.69;5005155;28;20455;-71
2020/12/26 01:43:06;;;;;;;4.30;4.00;;;;;;;-1.68;100.00;98691.44;5005184;28;20530;-73
2020/12/26 01:45:33;;;;;;;4.63;4.20;;;;;;;-1.68;99.56;98697.47;5004259;28;20522;-74
2020/12/26 01:48:02;;;;;;;4.33;4.03;;;;;;;-1.68;99.31;98691.44;5004392;28;20799;-72
2020/12/26 01:50:29;;;;;;;3.83;3.63;;;;;;;-1.73;98.14;98698.56;5003269;28;20991;-75
2020/12/26 01:52:56;;;;;;;4.27;3.97;;;;;;;-1.72;98.47;98697.66;5004436;28;20474;-73
2020/12/26 01:55:24;;;;;;;4.93;4.53;;;;;;;-1.83;99.74;98700.75;5004609;28;20633;-73
2020/12/26 01:57:52;;;;;;;4.13;3.83;;;;;;;-1.79;98.73;98704.91;5004132;28;20720;-74
2020/12/26 02:00:19;;;;;;;3.43;3.20;;;;;;;-1.71;99.51;98708.00;5010705;28;20461;-74
2020/12/26 02:02:47;;;;;;;4.50;4.20;;;;;;;-1.76;100.00;98700.41;5000876;28;20816;-73
2020/12/26 02:05:15;;;;;;;3.70;3.50;;;;;;;-1.83;100.00;98708.56;5003490;28;21029;-74
2020/12/26 02:07:44;;;;;;;4.27;3.97;;;;;;;-1.77;99.28;98708.28;5014022;28;20454;-73
2020/12/26 02:10:13;;;;;;;4.50;4.10;;;;;;;-1.82;99.70;98711.06;5013949;28;20439;-74
2020/12/26 02:12:41;;;;;;;4.03;3.63;;;;;;;-1.81;98.12;98717.13;5004758;28;20470;-72
2020/12/26 02:15:08;;;;;;;3.87;3.57;;;;;;;-1.83;97.92;98718.94;5004323;28;20448;-74
2020/12/26 02:17:35;;;;;;;4.47;3.47;;;;;;;-1.77;98.32;98713.47;5000074;28;20459;-74
2020/12/26 02:20:02;;;;;;;4.40;4.10;;;;;;;-1.76;96.61;98721.19;5014229;28;20498;-74
2020/12/26 02:22:29;;;;;;;3.80;3.50;;;;;;;-1.79;96.57;98729.13;5003545;28;20459;-72
2020/12/26 02:24:56;;;;;;;3.23;3.13;;;;;;;-1.70;97.01;98737.44;5009938;28;21172;-74
2020/12/26 02:27:23;;;;;;;3.93;3.63;;;;;;;-1.84;98.21;98731.09;5004240;28;20452;-73
2020/12/26 02:29:50;;;;;;;3.73;3.50;;;;;;;-1.85;96.31;98737.19;5003386;28;21077;-73
2020/12/26 02:32:17;;;;;;;4.03;3.63;;;;;;;-1.69;95.06;98734.75;5003638;28;20440;-73
2020/12/26 02:34:44;;;;;;;3.67;3.47;;;;;;;-1.68;93.10;98733.03;5003351;28;20448;-73
2020/12/26 02:37:12;;;;;;;3.30;3.10;;;;;;;-1.67;91.71;98732.09;5003728;28;20451;-72
2020/12/26 02:39:39;;;;;;;3.77;3.57;;;;;;;-1.74;93.62;98736.72;5003570;28;20836;-73
2020/12/26 02:42:07;;;;;;;3.50;3.30;;;;;;;-1.80;94.18;98743.03;5006623;28;20720;-74
2020/12/26 02:44:34;;;;;;;3.50;3.30;;;;;;;-1.75;93.96;98745.44;5000359;28;20448;-73
2020/12/26 02:47:01;;;;;;;3.57;3.37;;;;;;;-1.78;93.49;98749.00;5008526;28;20494;-74
2020/12/26 02:49:28;;;;;;;3.70;3.50;;;;;;;-1.71;92.75;98743.53;5011662;28;20479;-74
2020/12/26 02:51:55;;;;;;;3.40;3.20;;;;;;;-1.73;90.48;98740.16;5011423;28;20943;-73
2020/12/26 02:54:22;;;;;;;4.40;3.93;;;;;;;-1.43;88.81;98747.50;5012762;28;20880;-73
2020/12/26 02:56:49;;;;;;;3.60;3.30;;;;;;;-1.55;87.55;98746.28;5005733;28;20447;-74
2020/12/26 02:59:17;;;;;;;3.50;3.30;;;;;;;-1.64;87.28;98742.38;5008151;28;20468;-74
2020/12/26 03:01:45;;;;;;;3.30;3.10;;;;;;;-1.57;86.68;98737.72;5001016;28;20455;-73
2020/12/26 03:04:12;;;;;;;3.40;3.10;;;;;;;-1.53;85.34;98731.47;5001648;28;20451;-73
2020/12/26 03:06:39;;;;;;;3.77;3.50;;;;;;;-1.63;86.76;98738.84;5001186;28;20491;-73
2020/12/26 03:09:06;;;;;;;3.30;3.10;;;;;;;-1.58;87.20;98742.09;5003085;28;20463;-74
2020/12/26 03:11:33;;;;;;;3.23;3.07;;;;;;;-1.72;86.31;98736.63;4996950;28;20448;-74
2020/12/26 03:14:00;;;;;;;3.87;3.57;;;;;;;-1.77;88.96;98736.88;5003228;28;20465;-74
2020/12/26 03:16:28;;;;;;;4.30;3.90;;;;;;;-1.75;88.02;98735.88;5003424;28;21172;-72
2020/12/26 03:18:55;;;;;;;4.03;3.50;;;;;;;-1.73;88.99;98735.81;5001749;28;20463;-73
2020/12/26 03:21:22;;;;;;;4.27;3.97;;;;;;;-1.70;89.58;98738.28;5011347;28;20513;-73
2020/12/26 03:23:49;;;;;;;4.97;3.60;;;;;;;-1.79;88.88;98726.53;5001975;28;20876;-72
2020/12/26 03:26:16;;;;;;;4.37;3.60;;;;;;;-1.90;89.28;98733.97;5002871;28;20487;-73
2020/12/26 03:28:43;;;;;;;4.50;4.10;;;;;;;-2.05;91.48;98735.47;5003449;28;20476;-71
2020/12/26 03:31:10;;;;;;;3.93;3.63;;;;;;;-1.96;91.29;98744.63;5005504;28;20514;-74
2020/12/26 03:33:38;;;;;;;3.87;3.57;;;;;;;-2.14;91.83;98741.88;5001748;28;20439;-73
2020/12/26 03:36:05;;;;;;;4.37;3.97;;;;;;;-2.21;92.19;98745.66;5002845;28;20436;-73
2020/12/26 03:38:32;;;;;;;4.43;4.03;;;;;;;-2.19;93.15;98743.84;5004371;28;20491;-74
2020/12/26 03:41:00;;;;;;;4.33;4.03;;;;;;;-2.27;92.71;98739.00;5007228;28;20786;-72
2020/12/26 03:43:27;;;;;;;3.37;3.17;;;;;;;-2.54;95.82;98744.41;5010361;28;20626;-74
2020/12/26 03:45:54;;;;;;;4.00;3.70;;;;;;;-2.72;97.00;98756.38;5008927;28;20514;-72
2020/12/26 03:48:21;;;;;;;4.60;3.90;;;;;;;-2.79;96.85;98753.19;5005167;28;20483;-72
2020/12/26 03:50:49;;;;;;;4.00;3.70;;;;;;;-2.87;98.71;98754.38;5001305;28;20452;-74
2020/12/26 03:53:16;;;;;;;3.67;3.47;;;;;;;-2.84;98.26;98762.03;5003833;28;20452;-74
2020/12/26 03:55:43;;;;;;;4.90;4.10;;;;;;;-2.81;97.55;98761.94;5002902;28;20937;-73
2020/12/26 03:58:10;;;;;;;5.13;3.47;;;;;;;-2.95;99.32;98759.88;5002730;28;20494;-73
2020/12/26 04:00:37;;;;;;;4.27;3.97;;;;;;;-3.10;99.62;98758.72;5008959;28;20452;-74
2020/12/26 04:03:04;;;;;;;4.67;4.27;;;;;;;-3.14;100.00;98759.75;4999257;28;20451;-73
2020/12/26 04:05:31;;;;;;;4.20;3.80;;;;;;;-3.16;100.00;98762.41;5018254;28;20940;-73
2020/12/26 04:07:59;;;;;;;4.00;3.77;;;;;;;-3.17;100.00;98757.28;5001348;28;20477;-74
2020/12/26 04:10:26;;;;;;;4.13;3.83;;;;;;;-3.24;100.00;98767.03;5002947;28;20443;-73
2020/12/26 04:12:53;;;;;;;4.83;4.43;;;;;;;-3.13;100.00;98775.25;5007810;28;20884;-74
2020/12/26 04:15:20;;;;;;;3.70;3.50;;;;;;;-3.24;100.00;98782.59;5001134;28;20444;-73
2020/12/26 04:17:47;;;;;;;3.90;3.70;;;;;;;-3.32;100.00;98779.44;5001795;28;20460;-71
2020/12/26 04:20:14;;;;;;;4.53;4.23;;;;;;;-3.37;100.00;98787.38;5002486;28;20452;-73
2020/12/26 04:22:41;;;;;;;4.27;3.97;;;;;;;-3.25;100.00;98794.69;5006207;28;20440;-73
2020/12/26 04:25:09;;;;;;;4.13;3.80;;;;;;;-3.22;100.00;98797.19;5007997;28;20440;-73
2020/12/26 04:27:37;;;;;;;4.77;4.30;;;;;;;-3.24;100.00;98801.56;5002421;28;20469;-72
2020/12/26 04:30:06;;;;;;;4.40;4.07;;;;;;;-3.32;100.00;98800.19;5003009;28;20468;-73
2020/12/26 04:32:33;;;;;;;4.27;4.07;;;;;;;-3.35;100.00;98802.00;5001250;28;20501;-73
2020/12/26 04:35:00;;;;;;;5.47;4.93;;;;;;;-3.21;100.00;98806.66;5001988;28;20459;-73
2020/12/26 04:37:27;;;;;;;6.17;4.07;;;;;;;-3.19;100.00;98809.19;5008502;28;20454;-75
2020/12/26 04:39:54;;;;;;;9.97;4.20;;;;;;;-3.25;100.00;98805.06;5002650;28;20494;-73
2020/12/26 04:42:22;;;;;;;3.93;3.60;;;;;;;-3.13;100.00;98808.94;5009504;28;20467;-75
2020/12/26 04:44:50;;;;;;;4.20;3.90;;;;;;;-3.09;100.00;98814.88;5007410;28;20470;-74
2020/12/26 04:47:22;;;;;;;4.63;4.23;;;;;;;-3.12;98.96;98813.22;5014781;28;20484;-74
2020/12/26 04:49:51;;;;;;;3.70;3.50;;;;;;;-3.07;100.00;98807.88;5011675;28;20475;-74
2020/12/26 04:52:22;;;;;;;4.07;3.77;;;;;;;-3.11;98.22;98801.97;5004665;28;20462;-74
2020/12/26 04:54:52;;;;;;;4.17;3.87;;;;;;;-3.16;98.86;98801.28;5001101;28;20465;-75
2020/12/26 04:57:22;;;;;;;3.97;3.77;;;;;;;-3.17;99.87;98806.56;5008673;28;20558;-74
2020/12/26 04:59:49;;;;;;;3.83;3.63;;;;;;;-3.18;99.44;98803.09;5010057;28;20987;-74
2020/12/26 05:02:16;;;;;;;4.23;3.83;;;;;;;-3.26;99.20;98803.38;5009705;28;20448;-74
2020/12/26 05:04:43;;;;;;;4.50;4.20;;;;;;;-3.32;99.05;98808.78;5008857;28;20756;-74
2020/12/26 05:07:11;;;;;;;4.07;3.77;;;;;;;-3.37;100.00;98805.53;5011443;28;20487;-71
2020/12/26 05:09:38;;;;;;;4.20;3.80;;;;;;;-3.46;99.56;98804.09;5007588;28;20543;-70
2020/12/26 05:12:05;;;;;;;4.50;4.20;;;;;;;-3.58;100.00;98808.00;5003009;28;20503;-74
2020/12/26 05:14:33;;;;;;;3.80;3.50;;;;;;;-3.58;100.00;98796.78;5001438;28;20467;-73
2020/12/26 05:17:01;;;;;;;4.97;4.67;;;;;;;-3.59;100.00;98806.31;5006685;28;20855;-74
2020/12/26 05:19:28;;;;;;;4.40;4.07;;;;;;;-3.67;100.00;98805.72;5010789;28;20474;-74
2020/12/26 05:21:57;;;;;;;6.13;5.53;;;;;;;-3.65;100.00;98803.91;5002607;28;20567;-73
2020/12/26 05:24:24;;;;;;;6.13;4.10;;;;;;;-3.68;99.99;98809.22;4993373;28;20523;-72
2020/12/26 05:26:52;;;;;;;4.50;4.10;;;;;;;-3.70;100.00;98803.25;4999206;28;20910;-74
2020/12/26 05:29:21;;;;;;;4.87;4.57;;;;;;;-3.68;99.96;98804.03;4991505;28;20472;-73
2020/12/26 05:31:55;;;;;;;4.63;4.30;;;;;;;-3.75;100.00;98797.38;4993812;28;20472;-70
2020/12/26 05:34:42;;;;;;;4.40;4.10;;;;;;;-3.80;100.00;98788.03;4992268;28;20589;-73
2020/12/26 05:37:09;;;;;;;3.67;3.43;;;;;;;-3.74;100.00;98796.47;4990596;28;20444;-74
2020/12/26 05:39:37;;;;;;;5.23;4.20;;;;;;;-3.91;100.00;98795.34;4999428;28;21030;-74
2020/12/26 05:42:05;;;;;;;4.50;4.13;;;;;;;-3.94;100.00;98792.88;4993137;28;20452;-73
2020/12/26 05:44:34;;;;;;;4.80;4.40;;;;;;;-4.02;100.00;98802.63;4999883;28;20702;-73
2020/12/26 05:47:03;;;;;;;4.53;4.10;;;;;;;-4.05;100.00;98805.31;4987730;28;20973;-74
2020/12/26 05:49:32;;;;;;;4.87;4.47;;;;;;;-4.08;100.00;98801.09;4995608;28;20533;-72
2020/12/26 05:52:05;;;;;;;4.50;4.20;;;;;;;-4.19;100.00;98809.22;4989665;28;20453;-73
2020/12/26 05:54:32;;;;;;;4.83;4.43;;;;;;;-4.23;100.00;98808.47;4982763;28;20440;-72
2020/12/26 05:57:12;;;;;;;5.27;4.27;;;;;;;-4.23;100.00;98805.03;4990545;28;20462;-73
2020/12/26 05:59:40;;;;;;;5.63;5.10;;;;;;;-4.21;100.00;98805.84;4993577;28;20464;-72
2020/12/26 06:02:24;;;;;;;4.87;4.47;;;;;;;-4.24;100.00;98811.94;4989952;28;20671;-73
2020/12/26 06:04:59;;;;;;;6.20;5.50;;;;;;;-4.18;100.00;98817.81;4989918;28;20555;-75
2020/12/26 06:07:28;;;;;;;5.30;4.90;;;;;;;-4.09;100.00;98820.94;4993991;28;20483;-73
2020/12/26 06:09:57;;;;;;;5.40;4.90;;;;;;;-4.12;100.00;98823.66;4994215;28;20800;-73
2020/12/26 06:12:25;;;;;;;7.40;5.23;;;;;;;-4.10;100.00;98827.03;4989754;28;20444;-72
2020/12/26 06:14:52;;;;;;;5.97;5.40;;;;;;;-4.12;100.00;98818.47;4991477;28;20856;-73
2020/12/26 06:17:24;;;;;;;5.07;4.57;;;;;;;-4.16;100.00;98819.47;4992552;28;20456;-73
2020/12/26 06:19:56;;;;;;;5.20;4.80;;;;;;;-4.22;100.00;98825.69;4985984;28;20544;-73
2020/12/26 06:22:24;;;;;;;5.63;5.17;;;;;;;-4.24;100.00;98821.47;4991396;28;20455;-72
2020/12/26 06:24:52;;;;;;;5.50;5.10;;;;;;;-4.28;100.00;98819.88;4986799;28;20957;-73
2020/12/26 06:27:23;;;;;;;6.07;5.43;;;;;;;-4.39;100.00;98817.63;4991684;28;20492;-74
2020/12/26 06:29:50;;;;;;;5.50;5.10;;;;;;;-4.41;100.00;98816.84;4988519;28;20486;-72
2020/12/26 06:32:18;;;;;;;5.20;4.80;;;;;;;-4.40;100.00;98819.38;4990048;28;20464;-73
2020/12/26 06:34:46;;;;;;;6.27;4.90;;;;;;;-4.28;100.00;98818.13;4987687;28;20460;-71
2020/12/26 06:37:14;;;;;;;5.67;4.97;;;;;;;-4.31;100.00;98822.56;4993399;28;20965;-72
2020/12/26 06:39:41;;;;;;;4.97;4.43;;;;;;;-4.25;100.00;98822.38;4993813;28;20471;-71
2020/12/26 06:42:16;;;;;;;5.63;5.17;;;;;;;-4.31;100.00;98815.63;4989104;28;20485;-73
2020/12/26 06:44:44;;;;;;;5.40;5.00;;;;;;;-4.26;100.00;98818.09;4992864;28;20443;-72
2020/12/26 06:47:37;;;;;;;5.37;4.93;;;;;;;-4.24;100.00;98818.88;4992739;28;20480;-72
2020/12/26 06:50:19;;;;;;;5.93;5.43;;;;;;;-4.21;100.00;98823.97;4988527;28;20928;-70
2020/12/26 06:52:46;;;;;;;4.90;4.60;;;;;;;-4.20;100.00;98825.66;4991285;28;20448;-72
2020/12/26 06:55:40;;;;;;;7.67;7.07;;;;;;;-4.15;100.00;98822.91;4989731;28;20445;-74
2020/12/26 06:58:11;;;;;;;14.83;13.40;;;;;;;-4.12;100.00;98818.47;4993724;28;20871;-72
2020/12/26 07:00:39;;;;;;;10.40;9.57;;;;;;;-3.90;100.00;98817.75;4989485;28;20480;-70
2020/12/26 07:03:28;;;;;;;8.53;7.73;;;;;;;-3.83;100.00;98811.47;4984027;28;20453;-72
2020/12/26 07:05:57;;;;;;;6.87;6.37;;;;;;;-3.78;100.00;98813.91;4992001;28;20493;-71
2020/12/26 07:08:33;;;;;;;7.17;6.57;;;;;;;-3.75;100.00;98811.19;4982417;28;20471;-72
2020/12/26 07:11:03;;;;;;;11.53;10.53;;;;;;;-3.75;100.00;98818.09;4991744;28;20444;-72
2020/12/26 07:13:47;;;;;;;12.43;11.23;;;;;;;-3.69;100.00;98813.56;4986172;28;20965;-73
2020/12/26 07:16:41;;;;;;;6.47;5.97;;;;;;;-3.41;100.00;98817.78;4995330;28;20461;-72
2020/12/26 07:19:28;;;;;;;5.80;5.30;;;;;;;-3.49;100.00;98833.59;4932301;28;20464;-71
2020/12/26 07:21:57;;;;;;;7.30;6.60;;;;;;;-3.47;100.00;98825.75;4988479;28;20547;-71
2020/12/26 07:24:25;;;;;;;7.13;6.40;;;;;;;-3.30;100.00;98838.09;4989739;28;20455;-73
2020/12/26 07:26:52;;;;;;;6.93;6.33;;;;;;;-3.29;100.00;98833.78;5001489;28;20490;-74
2020/12/26 07:29:24;;;;;;;5.87;5.37;;;;;;;-3.15;100.00;98828.91;4994254;28;20485;-73
2020/12/26 07:31:51;;;;;;;7.77;7.07;;;;;;;-3.23;100.00;98825.75;4996892;28;20445;-72
2020/12/26 07:34:45;;;;;;;6.30;5.80;;;;;;;-3.10;100.00;98834.75;4991197;28;20467;-74
2020/12/26 07:37:12;;;;;;;6.60;6.00;;;;;;;-3.08;100.00;98842.50;4954471;28;20451;-72
2020/12/26 07:39:44;;;;;;;7.70;7.10;;;;;;;-2.93;100.00;98838.50;4993588;28;20459;-72
2020/12/26 07:42:15;;;;;;;7.07;6.17;;;;;;;-2.72;99.74;98835.97;4991731;28;20468;-71
2020/12/26 07:44:42;;;;;;;7.37;6.67;;;;;;;-2.65;99.32;98830.47;4989406;28;20465;-74
2020/12/26 07:47:12;;;;;;;6.20;5.70;;;;;;;-2.63;99.72;98844.25;4986195;28;20616;-72
2020/12/26 07:49:39;;;;;;;6.93;6.33;;;;;;;-2.63;99.85;98841.66;4993889;28;20476;-71
2020/12/26 07:52:07;;;;;;;6.83;6.13;;;;;;;-2.66;100.00;98853.88;4989479;28;20758;-73
2020/12/26 07:54:35;;;;;;;6.40;5.80;;;;;;;-2.58;100.00;98846.66;4989978;28;20450;-72
2020/12/26 07:57:02;;;;;;;6.13;5.53;;;;;;;-2.51;100.00;98831.69;4989699;28;20440;-71
2020/12/26 07:59:30;;;;;;;6.03;5.53;;;;;;;-2.45;100.00;98838.38;4990449;28;20475;-74
2020/12/26 08:01:57;;;;;;;6.20;5.70;;;;;;;-2.38;99.68;98842.44;4989635;28;20789;-71
2020/12/26 08:04:24;;;;;;;7.20;6.50;;;;;;;-2.16;98.52;98836.38;4986220;28;20460;-73
2020/12/26 08:06:52;;;;;;;7.73;7.03;;;;;;;-2.07;97.24;98841.19;4990565;28;20486;-73
2020/12/26 08:09:19;;;;;;;7.87;7.07;;;;;;;-1.95;96.68;98832.03;4989650;28;20460;-70
2020/12/26 08:11:47;;;;;;;9.73;8.73;;;;;;;-2.10;96.55;98825.72;4993223;28;20432;-71
2020/12/26 08:14:18;;;;;;;9.07;8.07;;;;;;;-1.97;96.17;98837.28;4991017;28;20440;-70
2020/12/26 08:16:46;;;;;;;9.03;7.97;;;;;;;-2.11;97.62;98832.66;4989227;28;20976;-70
2020/12/26 08:19:15;;;;;;;7.30;6.60;;;;;;;-2.09;96.96;98830.00;4990150;28;20471;-71
2020/12/26 08:21:42;;;;;;;9.40;7.80;;;;;;;-2.04;98.11;98831.53;4993759;28;20449;-73
2020/12/26 08:24:26;;;;;;;7.67;7.07;;;;;;;-2.26;98.97;98838.50;4992015;28;20592;-70
2020/12/26 08:26:55;;;;;;;7.10;6.47;;;;;;;-2.33;99.31;98849.13;4976597;28;21020;-71
2020/12/26 08:29:24;;;;;;;7.10;6.33;;;;;;;-2.08;99.14;98845.56;4989575;28;20464;-74
2020/12/26 08:31:58;;;;;;;6.70;6.10;;;;;;;-2.12;97.54;98850.91;4987618;28;20737;-72
2020/12/26 08:34:36;;;;;;;7.80;5.93;;;;;;;-1.96;96.07;98861.53;4979393;28;20582;-72
2020/12/26 08:37:12;;;;;;;7.37;6.67;;;;;;;-1.95;97.75;98850.22;5006889;28;20460;-70
2020/12/26 08:39:41;;;;;;;7.37;6.67;;;;;;;-1.77;95.98;98851.22;5002802;28;21039;-72
2020/12/26 08:42:13;;;;;;;7.07;6.47;;;;;;;-1.70;95.63;98849.19;5006294;28;20439;-72
2020/12/26 08:44:40;;;;;;;6.93;6.23;;;;;;;-1.65;94.46;98844.66;5004474;28;20597;-73
2020/12/26 08:47:07;;;;;;;7.40;6.27;;;;;;;-1.57;93.12;98837.34;5002139;28;20510;-75
2020/12/26 08:49:34;;;;;;;6.63;6.03;;;;;;;-1.68;94.42;98844.78;4997173;28;21014;-73
2020/12/26 08:52:02;;;;;;;6.63;6.03;;;;;;;-1.56;95.45;98840.78;5005650;28;20860;-72
2020/12/26 08:55:00;;;;;;;7.10;6.40;;;;;;;-1.45;93.97;98838.59;5003194;28;20724;-74
2020/12/26 08:57:29;;;;;;;7.73;6.50;;;;;;;-1.52;95.36;98852.75;5001721;28;20522;-75
2020/12/26 08:59:56;;;;;;;6.90;6.27;;;;;;;-1.44;95.25;98853.28;5000778;28;20475;-74
2020/12/26 09:02:23;;;;;;;7.87;6.80;;;;;;;-1.37;93.42;98853.81;5006335;28;20454;-72
2020/12/26 09:04:50;;;;;;;7.30;6.60;;;;;;;-1.35;94.41;98857.19;5003279;28;20458;-72
2020/12/26 09:07:21;;;;;;;6.27;5.67;;;;;;;-1.06;92.69;98855.94;5000908;28;20489;-73
2020/12/26 09:09:48;;;;;;;6.50;5.90;;;;;;;-0.89;89.47;98859.50;4997559;28;20474;-72
2020/12/26 09:12:15;;;;;;;5.93;5.43;;;;;;;-0.85;89.62;98866.25;5006950;28;20491;-71
2020/12/26 09:14:43;;;;;;;9.33;7.10;;;;;;;-0.95;90.00;98865.81;5001043;28;20232;-74
2020/12/26 09:17:10;;;;;;;7.30;6.20;;;;;;;-0.99;89.80;98869.47;5004523;28;20962;-72
2020/12/26 09:19:42;;;;;;;6.27;5.50;;;;;;;-0.64;90.64;98866.19;5005200;28;20562;-72
2020/12/26 09:22:10;;;;;;;7.67;6.33;;;;;;;-0.60;90.32;98870.34;5002465;28;20209;-74
2020/12/26 09:24:37;;;;;;;6.87;6.23;;;;;;;-0.43;88.67;98872.16;5006748;28;20969;-71
2020/12/26 09:27:05;;;;;;;7.47;6.20;;;;;;;-0.67;88.38;98874.97;5007437;28;20483;-70
2020/12/26 09:29:32;;;;;;;7.10;6.50;;;;;;;-0.70;90.13;98884.72;4997441;28;20464;-71
2020/12/26 09:32:07;;;;;;;7.67;6.93;;;;;;;-0.84;90.47;98885.34;5005036;28;20840;-70
2020/12/26 09:34:36;;;;;;;6.97;6.30;;;;;;;-0.67;89.96;98879.34;4999256;28;20439;-72
2020/12/26 09:37:04;;;;;;;6.23;5.63;;;;;;;-0.53;90.01;98883.94;5004367;28;20483;-74
2020/12/26 09:39:32;;;;;;;10.17;5.50;;;;;;;-0.39;88.36;98886.72;5007543;28;20463;-72
2020/12/26 09:41:59;;;;;;;7.10;5.63;;;;;;;-0.32;88.86;98877.69;5003390;28;20444;-75
2020/12/26 09:44:26;;;;;;;6.17;5.60;;;;;;;-0.25;88.57;98874.78;5004222;28;20220;-71
2020/12/26 09:46:57;;;;;;;6.50;5.90;;;;;;;-0.10;87.59;98868.84;5006081;28;20240;-72
2020/12/26 09:49:25;;;;;;;6.77;6.13;;;;;;;-0.17;87.35;98868.28;5007465;28;20472;-72
2020/12/26 09:51:52;;;;;;;6.97;6.27;;;;;;;-0.01;86.30;98871.00;5009006;28;20455;-71
2020/12/26 09:54:19;;;;;;;5.93;5.43;;;;;;;-0.08;86.75;98879.19;5003965;28;20209;-71
2020/12/26 09:56:46;;;;;;;8.00;6.27;;;;;;;-0.08;87.48;98864.41;5004777;28;20229;-71
2020/12/26 09:59:13;;;;;;;6.70;6.10;;;;;;;-0.03;86.60;98871.97;5004020;28;20225;-71
2020/12/26 10:01:40;;;;;;;7.53;5.97;;;;;;;-0.06;86.56;98872.13;5004808;28;20209;-71
2020/12/26 10:04:07;;;;;;;6.80;6.20;;;;;;;-0.24;85.69;98871.25;5003519;28;20205;-71
2020/12/26 10:06:35;;;;;;;6.63;6.03;;;;;;;-0.08;85.51;98871.34;5005232;28;20225;-71
2020/12/26 10:09:02;;;;;;;6.60;5.93;;;;;;;-0.34;85.99;98882.13;5003899;28;20976;-71
2020/12/26 10:11:29;;;;;;;7.43;6.73;;;;;;;-0.42;86.08;98883.41;5006841;28;20215;-71
2020/12/26 10:13:56;;;;;;;7.90;6.80;;;;;;;-0.41;85.09;98891.16;5003558;28;20463;-71
2020/12/26 10:16:23;;;;;;;5.50;5.00;;;;;;;-0.48;86.17;98895.78;5004157;28;20208;-73
2020/12/26 10:18:51;;;;;;;8.57;6.23;;;;;;;-0.55;86.50;98891.78;5004067;28;20221;-72
2020/12/26 10:21:18;;;;;;;6.43;5.53;;;;;;;-0.56;87.14;98895.31;5003959;28;20407;-72
2020/12/26 10:23:46;;;;;;;6.77;6.17;;;;;;;-0.57;88.07;98891.03;5002688;28;20205;-73
2020/12/26 10:26:13;;;;;;;6.63;5.63;;;;;;;-0.52;89.08;98888.22;5003190;28;20217;-71
2020/12/26 10:28:40;;;;;;;6.97;6.17;;;;;;;-0.61;89.35;98882.50;5007353;28;20224;-75
2020/12/26 10:31:07;;;;;;;6.80;6.20;;;;;;;-0.51;88.94;98879.50;5003444;28;20891;-71
2020/12/26 10:33:34;;;;;;;8.27;6.57;;;;;;;-0.45;88.89;98876.59;5003291;28;20450;-71
2020/12/26 10:36:02;;;;;;;7.10;6.27;;;;;;;-0.40;88.89;98876.34;5003713;28;20205;-72
2020/12/26 10:38:29;;;;;;;11.33;6.97;;;;;;;-0.37;88.32;98874.47;5003724;28;20475;-72
2020/12/26 10:40:57;;;;;;;8.73;6.70;;;;;;;-0.39;87.46;98880.66;5003004;28;20208;-71
2020/12/26 10:43:24;;;;;;;7.87;7.17;;;;;;;-0.28;87.59;98880.13;5000491;28;20535;-70
2020/12/26 10:45:51;;;;;;;7.20;6.60;;;;;;;-0.32;86.67;98872.47;5004633;28;20756;-72
2020/12/26 10:48:18;;;;;;;7.47;6.47;;;;;;;-0.25;86.28;98859.16;5004870;28;20488;-71
2020/12/26 10:50:45;;;;;;;9.53;6.87;;;;;;;-0.46;87.15;98870.53;5005010;28;20213;-70
2020/12/26 10:53:12;;;;;;;7.27;6.57;;;;;;;-0.45;87.03;98866.16;5003529;28;20447;-71
2020/12/26 10:55:39;;;;;;;8.17;7.37;;;;;;;-0.48;87.49;98869.75;5001462;28;20462;-71
2020/12/26 10:58:07;;;;;;;9.10;7.67;;;;;;;-0.57;87.23;98858.91;5003457;28;20477;-73
2020/12/26 11:00:34;;;;;;;8.20;6.97;;;;;;;-0.50;88.48;98862.94;5003342;28;20204;-73
2020/12/26 11:03:01;;;;;;;7.57;6.97;;;;;;;-0.48;88.81;98861.94;5007653;28;20452;-70
2020/12/26 11:05:28;;;;;;;8.33;7.63;;;;;;;-0.35;88.67;98857.00;5006725;28;20472;-71
2020/12/26 11:07:55;;;;;;;7.70;7.00;;;;;;;-0.29;87.22;98855.88;5004483;28;20224;-72
2020/12/26 11:10:22;;;;;;;7.77;7.07;;;;;;;-0.19;87.06;98854.50;5004086;28;20830;-71
2020/12/26 11:12:50;;;;;;;7.70;7.10;;;;;;;-0.24;87.46;98850.41;5002368;28;20231;-71
2020/12/26 11:15:18;;;;;;;8.10;6.33;;;;;;;-0.18;87.63;98848.38;5003658;28;20224;-71
2020/12/26 11:17:45;;;;;;;10.13;7.67;;;;;;;-0.32;87.36;98836.00;5003054;28;20209;-71
2020/12/26 11:20:12;;;;;;;7.57;6.87;;;;;;;-0.27;89.16;98845.34;5003081;28;20201;-72
2020/12/26 11:22:39;;;;;;;8.87;7.97;;;;;;;-0.30;88.44;98838.56;5002506;28;20213;-73
2020/12/26 11:25:06;;;;;;;8.47;7.37;;;;;;;-0.25;88.40;98828.75;5002107;28;20774;-73
2020/12/26 11:27:33;;;;;;;9.20;7.77;;;;;;;-0.09;89.05;98830.59;5002582;28;20224;-73
2020/12/26 11:30:00;;;;;;;8.90;8.00;;;;;;;-0.15;88.45;98829.97;5006062;28;20236;-71
2020/12/26 11:32:30;;;;;;;10.53;7.47;;;;;;;-0.10;89.60;98827.16;5003152;28;20267;-72
2020/12/26 11:34:57;;;;;;;8.37;7.53;;;;;;;-0.18;89.50;98831.91;5004257;28;20463;-71
2020/12/26 11:37:24;;;;;;;9.43;8.37;;;;;;;-0.06;89.90;98823.47;5001595;28;20212;-74